sensor_id;sensor_type;location;lat;lon;timestamp;P1;durP1;ratioP1;P2;durP2;ratioP2
54865;SDS011;40754;52.094;4.328;2022-10-17T00:00:09;8.10;;;5.22;;
54865;SDS011;40754;52.094;4.328;2022-10-17T00:02:34;7.50;;;4.95;;
54865;SDS011;40754;52.094;4.328;2022-10-17T00:05:00;8.45;;;5.47;;
54865;SDS011;40754;52.094;4.328;2022-10-17T00:07:25;9.80;;;5.13;;
54865;SDS011;40754;52.094;4.328;2022-10-17T00:09:50;11.38;;;5.70;;
54865;SDS011;40754;52.094;4.328;2022-10-17T00:12:15;7.95;;;5.22;;
54865;SDS011;40754;52.094;4.328;2022-10-17T00:14:41;9.02;;;5.10;;
54865;SDS011;40754;52.094;4.328;2022-10-17T00:17:06;10.07;;;5.82;;
54865;SDS011;40754;52.094;4.328;2022-10-17T00:19:32;12.27;;;6.20;;
54865;SDS011;40754;52.094;4.328;2022-10-17T00:21:57;8.38;;;6.22;;
54865;SDS011;40754;52.094;4.328;2022-10-17T00:24:22;10.20;;;6.57;;
54865;SDS011;40754;52.094;4.328;2022-10-17T00:26:48;11.05;;;7.03;;
54865;SDS011;40754;52.094;4.328;2022-10-17T00:29:13;10.63;;;7.32;;
54865;SDS011;40754;52.094;4.328;2022-10-17T00:31:38;12.15;;;7.05;;
54865;SDS011;40754;52.094;4.328;2022-10-17T00:34:04;12.27;;;6.85;;
54865;SDS011;40754;52.094;4.328;2022-10-17T00:36:29;14.65;;;7.50;;
54865;SDS011;40754;52.094;4.328;2022-10-17T00:38:56;8.00;;;7.20;;
54865;SDS011;40754;52.094;4.328;2022-10-17T00:41:22;8.18;;;7.18;;
54865;SDS011;40754;52.094;4.328;2022-10-17T00:43:56;10.27;;;7.75;;
54865;SDS011;40754;52.094;4.328;2022-10-17T00:46:23;14.30;;;7.90;;
54865;SDS011;40754;52.094;4.328;2022-10-17T00:48:49;11.98;;;7.55;;
54865;SDS011;40754;52.094;4.328;2022-10-17T00:51:16;12.00;;;7.53;;
54865;SDS011;40754;52.094;4.328;2022-10-17T00:53:43;14.88;;;8.05;;
54865;SDS011;40754;52.094;4.328;2022-10-17T00:56:09;13.00;;;8.32;;
54865;SDS011;40754;52.094;4.328;2022-10-17T00:58:34;14.88;;;8.75;;
54865;SDS011;40754;52.094;4.328;2022-10-17T01:01:00;16.13;;;8.85;;
54865;SDS011;40754;52.094;4.328;2022-10-17T01:03:26;13.15;;;8.75;;
54865;SDS011;40754;52.094;4.328;2022-10-17T01:05:52;13.23;;;9.45;;
54865;SDS011;40754;52.094;4.328;2022-10-17T01:08:17;12.75;;;9.38;;
54865;SDS011;40754;52.094;4.328;2022-10-17T01:14:12;13.07;;;9.73;;
54865;SDS011;40754;52.094;4.328;2022-10-17T01:16:24;14.75;;;9.55;;
54865;SDS011;40754;52.094;4.328;2022-10-17T01:19:26;17.25;;;9.52;;
54865;SDS011;40754;52.094;4.328;2022-10-17T01:34:08;17.33;;;10.32;;
54865;SDS011;40754;52.094;4.328;2022-10-17T01:39:09;15.93;;;10.73;;
54865;SDS011;40754;52.094;4.328;2022-10-17T01:41:40;16.08;;;11.80;;
54865;SDS011;40754;52.094;4.328;2022-10-17T01:44:13;16.90;;;11.32;;
54865;SDS011;40754;52.094;4.328;2022-10-17T01:46:40;16.13;;;11.30;;
54865;SDS011;40754;52.094;4.328;2022-10-17T01:49:07;16.98;;;11.68;;
54865;SDS011;40754;52.094;4.328;2022-10-17T01:51:38;16.50;;;11.88;;
54865;SDS011;40754;52.094;4.328;2022-10-17T01:54:08;18.40;;;11.90;;
54865;SDS011;40754;52.094;4.328;2022-10-17T01:56:35;15.43;;;12.25;;
54865;SDS011;40754;52.094;4.328;2022-10-17T01:59:03;17.83;;;12.07;;
54865;SDS011;40754;52.094;4.328;2022-10-17T02:01:30;17.20;;;12.05;;
54865;SDS011;40754;52.094;4.328;2022-10-17T02:03:57;15.73;;;11.82;;
54865;SDS011;40754;52.094;4.328;2022-10-17T02:06:23;20.48;;;12.70;;
54865;SDS011;40754;52.094;4.328;2022-10-17T02:08:49;19.00;;;13.02;;
54865;SDS011;40754;52.094;4.328;2022-10-17T02:11:24;15.77;;;12.35;;
54865;SDS011;40754;52.094;4.328;2022-10-17T02:26:54;18.50;;;12.38;;
54865;SDS011;40754;52.094;4.328;2022-10-17T02:29:18;20.08;;;13.35;;
54865;SDS011;40754;52.094;4.328;2022-10-17T02:31:55;18.48;;;12.38;;
54865;SDS011;40754;52.094;4.328;2022-10-17T02:34:33;21.42;;;12.75;;
54865;SDS011;40754;52.094;4.328;2022-10-17T02:37:01;17.83;;;12.65;;
54865;SDS011;40754;52.094;4.328;2022-10-17T02:39:27;19.10;;;12.70;;
54865;SDS011;40754;52.094;4.328;2022-10-17T02:41:54;16.17;;;12.80;;
54865;SDS011;40754;52.094;4.328;2022-10-17T02:44:20;16.95;;;13.00;;
54865;SDS011;40754;52.094;4.328;2022-10-17T02:46:47;17.88;;;13.05;;
54865;SDS011;40754;52.094;4.328;2022-10-17T02:49:23;17.15;;;12.88;;
54865;SDS011;40754;52.094;4.328;2022-10-17T02:56:47;18.60;;;12.80;;
54865;SDS011;40754;52.094;4.328;2022-10-17T02:59:14;19.13;;;12.23;;
54865;SDS011;40754;52.094;4.328;2022-10-17T03:01:41;18.92;;;12.93;;
54865;SDS011;40754;52.094;4.328;2022-10-17T03:04:09;20.17;;;12.65;;
54865;SDS011;40754;52.094;4.328;2022-10-17T03:06:35;17.38;;;11.93;;
54865;SDS011;40754;52.094;4.328;2022-10-17T03:09:01;13.60;;;10.95;;
54865;SDS011;40754;52.094;4.328;2022-10-17T03:11:26;16.48;;;11.75;;
54865;SDS011;40754;52.094;4.328;2022-10-17T03:13:51;15.95;;;11.48;;
54865;SDS011;40754;52.094;4.328;2022-10-17T03:16:17;18.55;;;11.88;;
54865;SDS011;40754;52.094;4.328;2022-10-17T03:18:42;15.15;;;11.70;;
54865;SDS011;40754;52.094;4.328;2022-10-17T03:21:07;15.18;;;11.50;;
54865;SDS011;40754;52.094;4.328;2022-10-17T03:23:33;19.75;;;11.25;;
54865;SDS011;40754;52.094;4.328;2022-10-17T03:26:01;22.00;;;11.93;;
54865;SDS011;40754;52.094;4.328;2022-10-17T03:28:26;17.02;;;11.38;;
54865;SDS011;40754;52.094;4.328;2022-10-17T03:30:52;13.13;;;11.18;;
54865;SDS011;40754;52.094;4.328;2022-10-17T03:33:18;16.63;;;11.00;;
54865;SDS011;40754;52.094;4.328;2022-10-17T03:35:43;13.88;;;10.70;;
54865;SDS011;40754;52.094;4.328;2022-10-17T03:38:08;15.75;;;10.85;;
54865;SDS011;40754;52.094;4.328;2022-10-17T03:40:33;14.43;;;10.82;;
54865;SDS011;40754;52.094;4.328;2022-10-17T03:42:59;12.35;;;10.55;;
54865;SDS011;40754;52.094;4.328;2022-10-17T03:45:24;14.52;;;9.50;;
54865;SDS011;40754;52.094;4.328;2022-10-17T03:47:49;15.45;;;9.70;;
54865;SDS011;40754;52.094;4.328;2022-10-17T03:50:15;15.70;;;10.70;;
54865;SDS011;40754;52.094;4.328;2022-10-17T03:52:40;15.95;;;9.93;;
54865;SDS011;40754;52.094;4.328;2022-10-17T03:55:06;15.38;;;9.85;;
54865;SDS011;40754;52.094;4.328;2022-10-17T03:57:33;16.15;;;9.68;;
54865;SDS011;40754;52.094;4.328;2022-10-17T03:59:58;16.42;;;10.27;;
54865;SDS011;40754;52.094;4.328;2022-10-17T04:02:23;18.33;;;9.93;;
54865;SDS011;40754;52.094;4.328;2022-10-17T04:04:49;16.10;;;10.05;;
54865;SDS011;40754;52.094;4.328;2022-10-17T04:07:14;14.48;;;9.77;;
54865;SDS011;40754;52.094;4.328;2022-10-17T04:09:42;15.73;;;9.38;;
54865;SDS011;40754;52.094;4.328;2022-10-17T04:12:08;13.82;;;9.27;;
54865;SDS011;40754;52.094;4.328;2022-10-17T04:14:33;13.20;;;9.13;;
54865;SDS011;40754;52.094;4.328;2022-10-17T04:16:58;14.15;;;8.82;;
54865;SDS011;40754;52.094;4.328;2022-10-17T04:19:24;17.50;;;8.10;;
54865;SDS011;40754;52.094;4.328;2022-10-17T04:21:49;13.68;;;9.13;;
54865;SDS011;40754;52.094;4.328;2022-10-17T04:24:15;12.55;;;8.48;;
54865;SDS011;40754;52.094;4.328;2022-10-17T04:26:40;14.70;;;8.73;;
54865;SDS011;40754;52.094;4.328;2022-10-17T04:29:06;11.00;;;8.27;;
54865;SDS011;40754;52.094;4.328;2022-10-17T04:31:31;12.45;;;8.20;;
54865;SDS011;40754;52.094;4.328;2022-10-17T04:34:02;10.75;;;7.82;;
54865;SDS011;40754;52.094;4.328;2022-10-17T04:36:27;12.60;;;8.38;;
54865;SDS011;40754;52.094;4.328;2022-10-17T04:38:55;15.27;;;7.40;;
54865;SDS011;40754;52.094;4.328;2022-10-17T04:41:23;12.55;;;8.10;;
54865;SDS011;40754;52.094;4.328;2022-10-17T04:43:49;17.98;;;8.25;;
54865;SDS011;40754;52.094;4.328;2022-10-17T04:46:15;9.65;;;7.35;;
54865;SDS011;40754;52.094;4.328;2022-10-17T04:48:40;11.32;;;7.30;;
54865;SDS011;40754;52.094;4.328;2022-10-17T04:51:07;11.60;;;8.15;;
54865;SDS011;40754;52.094;4.328;2022-10-17T04:53:33;11.18;;;8.10;;
54865;SDS011;40754;52.094;4.328;2022-10-17T04:55:59;13.05;;;7.90;;
54865;SDS011;40754;52.094;4.328;2022-10-17T04:58:27;15.70;;;7.63;;
54865;SDS011;40754;52.094;4.328;2022-10-17T05:00:52;13.57;;;7.78;;
54865;SDS011;40754;52.094;4.328;2022-10-17T05:03:17;14.82;;;7.82;;
54865;SDS011;40754;52.094;4.328;2022-10-17T05:05:46;11.13;;;7.72;;
54865;SDS011;40754;52.094;4.328;2022-10-17T05:08:11;10.27;;;6.93;;
54865;SDS011;40754;52.094;4.328;2022-10-17T05:10:41;11.95;;;7.63;;
54865;SDS011;40754;52.094;4.328;2022-10-17T05:13:06;10.13;;;6.57;;
54865;SDS011;40754;52.094;4.328;2022-10-17T05:15:32;13.80;;;7.25;;
54865;SDS011;40754;52.094;4.328;2022-10-17T05:18:03;10.63;;;6.80;;
54865;SDS011;40754;52.094;4.328;2022-10-17T05:20:32;11.98;;;7.45;;
54865;SDS011;40754;52.094;4.328;2022-10-17T05:23:01;12.02;;;7.20;;
54865;SDS011;40754;52.094;4.328;2022-10-17T05:25:29;12.27;;;6.93;;
54865;SDS011;40754;52.094;4.328;2022-10-17T05:28:00;12.77;;;6.68;;
54865;SDS011;40754;52.094;4.328;2022-10-17T05:30:25;9.95;;;6.88;;
54865;SDS011;40754;52.094;4.328;2022-10-17T05:32:53;11.95;;;7.18;;
54865;SDS011;40754;52.094;4.328;2022-10-17T05:35:19;14.52;;;8.02;;
54865;SDS011;40754;52.094;4.328;2022-10-17T05:37:44;10.77;;;6.80;;
54865;SDS011;40754;52.094;4.328;2022-10-17T05:40:10;11.75;;;7.88;;
54865;SDS011;40754;52.094;4.328;2022-10-17T05:42:38;12.30;;;8.27;;
54865;SDS011;40754;52.094;4.328;2022-10-17T05:45:06;13.55;;;8.25;;
54865;SDS011;40754;52.094;4.328;2022-10-17T05:47:34;9.02;;;7.38;;
54865;SDS011;40754;52.094;4.328;2022-10-17T05:49:59;17.80;;;8.30;;
54865;SDS011;40754;52.094;4.328;2022-10-17T05:52:25;13.98;;;8.00;;
54865;SDS011;40754;52.094;4.328;2022-10-17T05:54:56;12.45;;;8.15;;
54865;SDS011;40754;52.094;4.328;2022-10-17T05:57:23;15.65;;;7.88;;
54865;SDS011;40754;52.094;4.328;2022-10-17T05:59:51;15.18;;;8.25;;
54865;SDS011;40754;52.094;4.328;2022-10-17T06:02:17;14.90;;;7.90;;
54865;SDS011;40754;52.094;4.328;2022-10-17T06:04:42;9.57;;;7.38;;
54865;SDS011;40754;52.094;4.328;2022-10-17T06:07:19;17.02;;;7.70;;
54865;SDS011;40754;52.094;4.328;2022-10-17T06:10:02;11.27;;;7.95;;
54865;SDS011;40754;52.094;4.328;2022-10-17T06:12:27;12.82;;;7.70;;
54865;SDS011;40754;52.094;4.328;2022-10-17T06:14:52;13.30;;;7.82;;
54865;SDS011;40754;52.094;4.328;2022-10-17T06:17:18;13.32;;;8.43;;
54865;SDS011;40754;52.094;4.328;2022-10-17T06:19:43;11.02;;;7.45;;
54865;SDS011;40754;52.094;4.328;2022-10-17T06:22:11;12.63;;;7.95;;
54865;SDS011;40754;52.094;4.328;2022-10-17T06:24:36;13.27;;;7.95;;
54865;SDS011;40754;52.094;4.328;2022-10-17T06:27:02;12.40;;;7.60;;
54865;SDS011;40754;52.094;4.328;2022-10-17T06:29:29;11.95;;;7.35;;
54865;SDS011;40754;52.094;4.328;2022-10-17T06:31:57;13.65;;;7.60;;
54865;SDS011;40754;52.094;4.328;2022-10-17T06:34:22;12.18;;;7.35;;
54865;SDS011;40754;52.094;4.328;2022-10-17T06:36:48;12.93;;;7.97;;
54865;SDS011;40754;52.094;4.328;2022-10-17T06:39:14;14.07;;;7.63;;
54865;SDS011;40754;52.094;4.328;2022-10-17T06:41:39;17.17;;;8.00;;
54865;SDS011;40754;52.094;4.328;2022-10-17T06:44:09;16.48;;;7.57;;
54865;SDS011;40754;52.094;4.328;2022-10-17T06:46:43;10.25;;;7.15;;
54865;SDS011;40754;52.094;4.328;2022-10-17T06:49:08;14.68;;;7.78;;
54865;SDS011;40754;52.094;4.328;2022-10-17T06:51:34;14.20;;;7.53;;
54865;SDS011;40754;52.094;4.328;2022-10-17T06:54:00;13.65;;;7.43;;
54865;SDS011;40754;52.094;4.328;2022-10-17T06:56:26;9.82;;;7.28;;
54865;SDS011;40754;52.094;4.328;2022-10-17T06:58:51;15.45;;;7.65;;
54865;SDS011;40754;52.094;4.328;2022-10-17T07:01:17;13.05;;;8.02;;
54865;SDS011;40754;52.094;4.328;2022-10-17T07:03:42;10.23;;;7.60;;
54865;SDS011;40754;52.094;4.328;2022-10-17T07:06:08;14.88;;;7.97;;
54865;SDS011;40754;52.094;4.328;2022-10-17T07:08:35;16.05;;;8.30;;
54865;SDS011;40754;52.094;4.328;2022-10-17T07:11:14;18.27;;;8.18;;
54865;SDS011;40754;52.094;4.328;2022-10-17T07:13:39;12.60;;;8.35;;
54865;SDS011;40754;52.094;4.328;2022-10-17T07:16:05;11.90;;;8.25;;
54865;SDS011;40754;52.094;4.328;2022-10-17T07:18:31;13.35;;;8.18;;
54865;SDS011;40754;52.094;4.328;2022-10-17T07:20:56;17.98;;;8.32;;
54865;SDS011;40754;52.094;4.328;2022-10-17T07:23:24;10.23;;;7.97;;
54865;SDS011;40754;52.094;4.328;2022-10-17T07:25:49;15.48;;;8.60;;
54865;SDS011;40754;52.094;4.328;2022-10-17T07:28:15;14.23;;;8.43;;
54865;SDS011;40754;52.094;4.328;2022-10-17T07:30:40;18.33;;;8.07;;
54865;SDS011;40754;52.094;4.328;2022-10-17T07:33:05;15.88;;;7.90;;
54865;SDS011;40754;52.094;4.328;2022-10-17T07:35:31;13.52;;;8.32;;
54865;SDS011;40754;52.094;4.328;2022-10-17T07:37:56;15.63;;;8.90;;
54865;SDS011;40754;52.094;4.328;2022-10-17T07:40:24;13.27;;;8.90;;
54865;SDS011;40754;52.094;4.328;2022-10-17T07:42:50;13.63;;;8.48;;
54865;SDS011;40754;52.094;4.328;2022-10-17T07:45:23;15.23;;;9.05;;
54865;SDS011;40754;52.094;4.328;2022-10-17T07:51:10;13.23;;;9.48;;
54865;SDS011;40754;52.094;4.328;2022-10-17T07:53:38;14.65;;;9.95;;
54865;SDS011;40754;52.094;4.328;2022-10-17T07:56:05;16.63;;;9.63;;
54865;SDS011;40754;52.094;4.328;2022-10-17T07:58:30;17.98;;;9.52;;
54865;SDS011;40754;52.094;4.328;2022-10-17T08:00:59;13.00;;;8.70;;
54865;SDS011;40754;52.094;4.328;2022-10-17T08:03:24;15.73;;;9.13;;
54865;SDS011;40754;52.094;4.328;2022-10-17T08:05:50;13.43;;;8.95;;
54865;SDS011;40754;52.094;4.328;2022-10-17T08:08:37;13.88;;;8.98;;
54865;SDS011;40754;52.094;4.328;2022-10-17T08:11:03;19.15;;;8.98;;
54865;SDS011;40754;52.094;4.328;2022-10-17T08:13:32;22.88;;;9.48;;
54865;SDS011;40754;52.094;4.328;2022-10-17T08:15:58;13.68;;;9.10;;
54865;SDS011;40754;52.094;4.328;2022-10-17T08:18:23;17.80;;;9.38;;
54865;SDS011;40754;52.094;4.328;2022-10-17T08:20:58;18.45;;;9.98;;
54865;SDS011;40754;52.094;4.328;2022-10-17T08:23:23;24.60;;;11.10;;
54865;SDS011;40754;52.094;4.328;2022-10-17T08:25:48;18.33;;;9.27;;
54865;SDS011;40754;52.094;4.328;2022-10-17T08:28:14;13.30;;;9.18;;
54865;SDS011;40754;52.094;4.328;2022-10-17T08:30:42;16.50;;;9.65;;
54865;SDS011;40754;52.094;4.328;2022-10-17T08:33:28;12.10;;;9.32;;
54865;SDS011;40754;52.094;4.328;2022-10-17T08:35:53;14.50;;;9.10;;
54865;SDS011;40754;52.094;4.328;2022-10-17T08:38:18;17.95;;;8.63;;
54865;SDS011;40754;52.094;4.328;2022-10-17T08:40:44;19.02;;;9.25;;
54865;SDS011;40754;52.094;4.328;2022-10-17T08:43:22;16.45;;;9.93;;
54865;SDS011;40754;52.094;4.328;2022-10-17T08:45:52;13.60;;;8.30;;
54865;SDS011;40754;52.094;4.328;2022-10-17T08:48:19;15.15;;;8.57;;
54865;SDS011;40754;52.094;4.328;2022-10-17T08:55:54;13.27;;;8.93;;
54865;SDS011;40754;52.094;4.328;2022-10-17T08:58:24;12.90;;;8.60;;
54865;SDS011;40754;52.094;4.328;2022-10-17T09:05:48;18.05;;;9.40;;
54865;SDS011;40754;52.094;4.328;2022-10-17T09:08:29;16.70;;;9.52;;
54865;SDS011;40754;52.094;4.328;2022-10-17T09:10:58;20.70;;;9.88;;
54865;SDS011;40754;52.094;4.328;2022-10-17T09:13:50;19.30;;;10.02;;
54865;SDS011;40754;52.094;4.328;2022-10-17T09:19:10;15.40;;;10.20;;
54865;SDS011;40754;52.094;4.328;2022-10-17T09:24:17;14.75;;;9.30;;
54865;SDS011;40754;52.094;4.328;2022-10-17T09:26:44;13.60;;;8.35;;
54865;SDS011;40754;52.094;4.328;2022-10-17T09:29:20;16.38;;;8.10;;
54865;SDS011;40754;52.094;4.328;2022-10-17T09:34:31;19.17;;;9.57;;
54865;SDS011;40754;52.094;4.328;2022-10-17T09:36:57;14.90;;;7.45;;
54865;SDS011;40754;52.094;4.328;2022-10-17T09:39:23;12.20;;;7.28;;
54865;SDS011;40754;52.094;4.328;2022-10-17T09:41:52;14.40;;;7.57;;
54865;SDS011;40754;52.094;4.328;2022-10-17T09:44:19;11.38;;;6.22;;
54865;SDS011;40754;52.094;4.328;2022-10-17T09:46:55;10.70;;;6.25;;
54865;SDS011;40754;52.094;4.328;2022-10-17T09:49:30;14.48;;;7.38;;
54865;SDS011;40754;52.094;4.328;2022-10-17T09:51:56;10.27;;;6.70;;
54865;SDS011;40754;52.094;4.328;2022-10-17T09:54:30;14.50;;;6.68;;
54865;SDS011;40754;52.094;4.328;2022-10-17T09:59:38;11.40;;;6.00;;
54865;SDS011;40754;52.094;4.328;2022-10-17T10:02:17;11.82;;;6.80;;
54865;SDS011;40754;52.094;4.328;2022-10-17T10:05:04;9.80;;;5.75;;
54865;SDS011;40754;52.094;4.328;2022-10-17T10:07:31;11.98;;;6.35;;
54865;SDS011;40754;52.094;4.328;2022-10-17T10:09:58;12.00;;;4.63;;
54865;SDS011;40754;52.094;4.328;2022-10-17T10:12:52;7.88;;;3.85;;
54865;SDS011;40754;52.094;4.328;2022-10-17T10:17:53;5.57;;;2.90;;
54865;SDS011;40754;52.094;4.328;2022-10-17T10:23:03;5.95;;;3.55;;
54865;SDS011;40754;52.094;4.328;2022-10-17T10:25:29;8.65;;;4.03;;
54865;SDS011;40754;52.094;4.328;2022-10-17T10:28:01;11.65;;;3.90;;
54865;SDS011;40754;52.094;4.328;2022-10-17T10:30:28;8.23;;;3.72;;
54865;SDS011;40754;52.094;4.328;2022-10-17T10:32:56;9.93;;;3.78;;
54865;SDS011;40754;52.094;4.328;2022-10-17T10:35:30;10.15;;;3.53;;
54865;SDS011;40754;52.094;4.328;2022-10-17T10:37:56;5.03;;;3.88;;
54865;SDS011;40754;52.094;4.328;2022-10-17T10:40:34;8.85;;;3.95;;
54865;SDS011;40754;52.094;4.328;2022-10-17T10:43:01;6.13;;;4.18;;
54865;SDS011;40754;52.094;4.328;2022-10-17T10:48:02;6.60;;;3.92;;
54865;SDS011;40754;52.094;4.328;2022-10-17T10:50:30;7.20;;;4.32;;
54865;SDS011;40754;52.094;4.328;2022-10-17T10:55:33;8.40;;;4.32;;
54865;SDS011;40754;52.094;4.328;2022-10-17T10:58:03;8.20;;;3.85;;
54865;SDS011;40754;52.094;4.328;2022-10-17T11:00:30;7.38;;;3.70;;
54865;SDS011;40754;52.094;4.328;2022-10-17T11:05:42;7.45;;;3.08;;
54865;SDS011;40754;52.094;4.328;2022-10-17T11:15:57;8.60;;;4.18;;
54865;SDS011;40754;52.094;4.328;2022-10-17T11:25:38;7.03;;;3.50;;
54865;SDS011;40754;52.094;4.328;2022-10-17T11:28:12;6.90;;;3.40;;
54865;SDS011;40754;52.094;4.328;2022-10-17T11:33:03;6.72;;;2.70;;
54865;SDS011;40754;52.094;4.328;2022-10-17T11:35:31;4.45;;;2.60;;
54865;SDS011;40754;52.094;4.328;2022-10-17T11:40:30;5.55;;;2.45;;
54865;SDS011;40754;52.094;4.328;2022-10-17T11:42:57;7.63;;;2.45;;
54865;SDS011;40754;52.094;4.328;2022-10-17T11:45:24;5.70;;;2.38;;
54865;SDS011;40754;52.094;4.328;2022-10-17T11:47:52;5.90;;;2.90;;
54865;SDS011;40754;52.094;4.328;2022-10-17T11:50:23;5.47;;;2.47;;
54865;SDS011;40754;52.094;4.328;2022-10-17T11:52:51;5.35;;;2.50;;
54865;SDS011;40754;52.094;4.328;2022-10-17T12:08:08;4.03;;;2.13;;
54865;SDS011;40754;52.094;4.328;2022-10-17T12:15:46;5.22;;;2.80;;
54865;SDS011;40754;52.094;4.328;2022-10-17T12:18:15;8.85;;;2.38;;
54865;SDS011;40754;52.094;4.328;2022-10-17T12:20:41;8.02;;;2.63;;
54865;SDS011;40754;52.094;4.328;2022-10-17T12:25:36;4.85;;;2.75;;
54865;SDS011;40754;52.094;4.328;2022-10-17T12:31:06;5.32;;;2.28;;
54865;SDS011;40754;52.094;4.328;2022-10-17T12:38:50;8.73;;;3.00;;
54865;SDS011;40754;52.094;4.328;2022-10-17T12:41:26;2.97;;;2.30;;
54865;SDS011;40754;52.094;4.328;2022-10-17T12:44:05;5.43;;;2.45;;
54865;SDS011;40754;52.094;4.328;2022-10-17T12:49:23;6.65;;;2.47;;
54865;SDS011;40754;52.094;4.328;2022-10-17T12:59:55;5.90;;;2.35;;
54865;SDS011;40754;52.094;4.328;2022-10-17T13:02:22;2.95;;;1.95;;
54865;SDS011;40754;52.094;4.328;2022-10-17T13:04:49;5.07;;;2.40;;
54865;SDS011;40754;52.094;4.328;2022-10-17T13:07:18;5.20;;;2.45;;
54865;SDS011;40754;52.094;4.328;2022-10-17T13:09:44;3.63;;;2.15;;
54865;SDS011;40754;52.094;4.328;2022-10-17T13:12:12;3.05;;;1.92;;
54865;SDS011;40754;52.094;4.328;2022-10-17T13:14:39;7.60;;;2.67;;
54865;SDS011;40754;52.094;4.328;2022-10-17T13:17:09;14.05;;;2.90;;
54865;SDS011;40754;52.094;4.328;2022-10-17T13:19:44;5.90;;;3.00;;
54865;SDS011;40754;52.094;4.328;2022-10-17T13:22:20;4.97;;;2.63;;
54865;SDS011;40754;52.094;4.328;2022-10-17T13:24:46;4.05;;;2.33;;
54865;SDS011;40754;52.094;4.328;2022-10-17T13:27:23;7.38;;;2.97;;
54865;SDS011;40754;52.094;4.328;2022-10-17T13:29:48;6.57;;;2.85;;
54865;SDS011;40754;52.094;4.328;2022-10-17T13:32:14;8.02;;;2.40;;
54865;SDS011;40754;52.094;4.328;2022-10-17T13:34:39;11.05;;;2.58;;
54865;SDS011;40754;52.094;4.328;2022-10-17T13:37:05;8.48;;;2.53;;
54865;SDS011;40754;52.094;4.328;2022-10-17T13:39:40;7.50;;;2.33;;
54865;SDS011;40754;52.094;4.328;2022-10-17T13:42:27;8.90;;;2.78;;
54865;SDS011;40754;52.094;4.328;2022-10-17T13:44:53;7.78;;;2.90;;
54865;SDS011;40754;52.094;4.328;2022-10-17T13:47:22;9.32;;;2.65;;
54865;SDS011;40754;52.094;4.328;2022-10-17T13:49:48;9.40;;;3.28;;
54865;SDS011;40754;52.094;4.328;2022-10-17T13:52:15;5.90;;;2.25;;
54865;SDS011;40754;52.094;4.328;2022-10-17T13:54:43;7.80;;;3.50;;
54865;SDS011;40754;52.094;4.328;2022-10-17T13:57:28;7.63;;;3.08;;
54865;SDS011;40754;52.094;4.328;2022-10-17T13:59:55;7.15;;;3.00;;
54865;SDS011;40754;52.094;4.328;2022-10-17T14:02:23;6.28;;;2.97;;
54865;SDS011;40754;52.094;4.328;2022-10-17T14:07:51;11.77;;;3.53;;
54865;SDS011;40754;52.094;4.328;2022-10-17T14:12:48;8.60;;;3.05;;
54865;SDS011;40754;52.094;4.328;2022-10-17T14:15:14;9.13;;;2.90;;
54865;SDS011;40754;52.094;4.328;2022-10-17T14:17:40;14.63;;;3.35;;
54865;SDS011;40754;52.094;4.328;2022-10-17T14:20:15;9.02;;;3.60;;
54865;SDS011;40754;52.094;4.328;2022-10-17T14:22:41;5.95;;;2.75;;
54865;SDS011;40754;52.094;4.328;2022-10-17T14:25:25;7.45;;;2.90;;
54865;SDS011;40754;52.094;4.328;2022-10-17T14:27:52;5.20;;;2.45;;
54865;SDS011;40754;52.094;4.328;2022-10-17T14:30:41;14.60;;;3.05;;
54865;SDS011;40754;52.094;4.328;2022-10-17T14:33:06;8.43;;;2.50;;
54865;SDS011;40754;52.094;4.328;2022-10-17T14:35:32;5.68;;;3.08;;
54865;SDS011;40754;52.094;4.328;2022-10-17T14:37:59;8.38;;;2.83;;
54865;SDS011;40754;52.094;4.328;2022-10-17T14:40:26;7.97;;;3.08;;
54865;SDS011;40754;52.094;4.328;2022-10-17T14:42:52;10.98;;;3.10;;
54865;SDS011;40754;52.094;4.328;2022-10-17T14:45:26;10.05;;;2.90;;
54865;SDS011;40754;52.094;4.328;2022-10-17T14:47:52;5.22;;;2.47;;
54865;SDS011;40754;52.094;4.328;2022-10-17T14:50:29;6.18;;;2.40;;
54865;SDS011;40754;52.094;4.328;2022-10-17T14:53:00;7.13;;;2.63;;
54865;SDS011;40754;52.094;4.328;2022-10-17T14:55:27;6.07;;;2.60;;
54865;SDS011;40754;52.094;4.328;2022-10-17T14:57:52;7.78;;;2.28;;
54865;SDS011;40754;52.094;4.328;2022-10-17T15:00:19;7.78;;;2.47;;
54865;SDS011;40754;52.094;4.328;2022-10-17T15:02:45;5.43;;;2.58;;
54865;SDS011;40754;52.094;4.328;2022-10-17T15:05:13;6.53;;;2.55;;
54865;SDS011;40754;52.094;4.328;2022-10-17T15:07:39;7.30;;;2.80;;
54865;SDS011;40754;52.094;4.328;2022-10-17T15:10:05;8.48;;;2.88;;
54865;SDS011;40754;52.094;4.328;2022-10-17T15:12:31;8.45;;;3.38;;
54865;SDS011;40754;52.094;4.328;2022-10-17T15:14:59;5.30;;;2.70;;
54865;SDS011;40754;52.094;4.328;2022-10-17T15:17:26;8.50;;;3.15;;
54865;SDS011;40754;52.094;4.328;2022-10-17T15:19:55;9.27;;;3.30;;
54865;SDS011;40754;52.094;4.328;2022-10-17T15:22:21;6.25;;;2.80;;
54865;SDS011;40754;52.094;4.328;2022-10-17T15:24:47;6.90;;;3.30;;
54865;SDS011;40754;52.094;4.328;2022-10-17T15:27:14;10.88;;;3.70;;
54865;SDS011;40754;52.094;4.328;2022-10-17T15:29:40;12.30;;;3.78;;
54865;SDS011;40754;52.094;4.328;2022-10-17T15:32:05;13.43;;;3.28;;
54865;SDS011;40754;52.094;4.328;2022-10-17T15:34:34;11.52;;;3.40;;
54865;SDS011;40754;52.094;4.328;2022-10-17T15:37:01;10.38;;;4.00;;
54865;SDS011;40754;52.094;4.328;2022-10-17T15:39:27;8.75;;;2.90;;
54865;SDS011;40754;52.094;4.328;2022-10-17T15:41:53;8.38;;;2.95;;
54865;SDS011;40754;52.094;4.328;2022-10-17T15:44:18;8.07;;;3.65;;
54865;SDS011;40754;52.094;4.328;2022-10-17T15:46:43;17.90;;;4.03;;
54865;SDS011;40754;52.094;4.328;2022-10-17T15:49:10;12.10;;;4.30;;
54865;SDS011;40754;52.094;4.328;2022-10-17T15:51:36;10.40;;;3.13;;
54865;SDS011;40754;52.094;4.328;2022-10-17T15:54:01;10.75;;;3.17;;
54865;SDS011;40754;52.094;4.328;2022-10-17T15:56:30;9.57;;;3.70;;
54865;SDS011;40754;52.094;4.328;2022-10-17T15:58:59;10.85;;;3.60;;
54865;SDS011;40754;52.094;4.328;2022-10-17T16:01:26;15.10;;;3.88;;
54865;SDS011;40754;52.094;4.328;2022-10-17T16:03:52;12.18;;;3.67;;
54865;SDS011;40754;52.094;4.328;2022-10-17T16:06:18;11.60;;;3.53;;
54865;SDS011;40754;52.094;4.328;2022-10-17T16:08:48;14.68;;;3.83;;
54865;SDS011;40754;52.094;4.328;2022-10-17T16:11:32;11.88;;;3.92;;
54865;SDS011;40754;52.094;4.328;2022-10-17T16:13:59;10.18;;;3.22;;
54865;SDS011;40754;52.094;4.328;2022-10-17T16:16:25;12.80;;;3.90;;
54865;SDS011;40754;52.094;4.328;2022-10-17T16:18:50;16.38;;;3.55;;
54865;SDS011;40754;52.094;4.328;2022-10-17T16:21:15;10.88;;;3.88;;
54865;SDS011;40754;52.094;4.328;2022-10-17T16:23:41;10.82;;;3.45;;
54865;SDS011;40754;52.094;4.328;2022-10-17T16:26:07;13.52;;;4.18;;
54865;SDS011;40754;52.094;4.328;2022-10-17T16:28:33;11.20;;;3.00;;
54865;SDS011;40754;52.094;4.328;2022-10-17T16:30:58;8.23;;;3.15;;
54865;SDS011;40754;52.094;4.328;2022-10-17T16:33:25;13.98;;;3.72;;
54865;SDS011;40754;52.094;4.328;2022-10-17T16:35:50;13.70;;;3.30;;
54865;SDS011;40754;52.094;4.328;2022-10-17T16:38:16;11.50;;;3.65;;
54865;SDS011;40754;52.094;4.328;2022-10-17T16:40:41;11.77;;;3.50;;
54865;SDS011;40754;52.094;4.328;2022-10-17T16:43:09;12.75;;;3.20;;
54865;SDS011;40754;52.094;4.328;2022-10-17T16:45:36;11.75;;;3.58;;
54865;SDS011;40754;52.094;4.328;2022-10-17T16:48:01;10.50;;;3.00;;
54865;SDS011;40754;52.094;4.328;2022-10-17T16:50:27;9.77;;;3.50;;
54865;SDS011;40754;52.094;4.328;2022-10-17T16:52:55;14.18;;;3.78;;
54865;SDS011;40754;52.094;4.328;2022-10-17T16:55:21;9.23;;;2.97;;
54865;SDS011;40754;52.094;4.328;2022-10-17T16:57:46;12.38;;;3.85;;